sensor_id;sensor_type;location;lat;lon;timestamp;P1;durP1;ratioP1;P2;durP2;ratioP2
68176;SDS011;56478;50.982;7.032;2024-01-16T00:02:17;13.63;;;6.50;;
68176;SDS011;56478;50.982;7.032;2024-01-16T00:04:42;10.75;;;6.90;;
68176;SDS011;56478;50.982;7.032;2024-01-16T00:07:09;12.55;;;7.00;;
68176;SDS011;56478;50.982;7.032;2024-01-16T00:09:34;9.70;;;6.70;;
68176;SDS011;56478;50.982;7.032;2024-01-16T00:12:01;12.13;;;7.60;;
68176;SDS011;56478;50.982;7.032;2024-01-16T00:14:29;12.80;;;6.77;;
68176;SDS011;56478;50.982;7.032;2024-01-16T00:16:54;10.90;;;7.05;;
68176;SDS011;56478;50.982;7.032;2024-01-16T00:22:09;14.25;;;7.40;;
68176;SDS011;56478;50.982;7.032;2024-01-16T00:24:35;13.73;;;7.60;;
68176;SDS011;56478;50.982;7.032;2024-01-16T00:27:00;11.40;;;7.25;;
68176;SDS011;56478;50.982;7.032;2024-01-16T00:29:26;12.10;;;7.38;;
68176;SDS011;56478;50.982;7.032;2024-01-16T00:31:52;12.90;;;7.28;;
68176;SDS011;56478;50.982;7.032;2024-01-16T00:34:18;13.10;;;7.20;;
68176;SDS011;56478;50.982;7.032;2024-01-16T00:36:44;15.02;;;7.45;;
68176;SDS011;56478;50.982;7.032;2024-01-16T00:39:09;15.05;;;7.25;;
68176;SDS011;56478;50.982;7.032;2024-01-16T00:41:35;8.18;;;6.70;;
68176;SDS011;56478;50.982;7.032;2024-01-16T00:44:01;16.35;;;7.15;;
68176;SDS011;56478;50.982;7.032;2024-01-16T00:46:27;12.63;;;7.28;;
68176;SDS011;56478;50.982;7.032;2024-01-16T00:48:52;14.50;;;7.47;;
68176;SDS011;56478;50.982;7.032;2024-01-16T00:51:18;11.60;;;7.18;;
68176;SDS011;56478;50.982;7.032;2024-01-16T00:53:44;12.85;;;7.28;;
68176;SDS011;56478;50.982;7.032;2024-01-16T00:56:10;13.95;;;7.35;;
68176;SDS011;56478;50.982;7.032;2024-01-16T00:58:37;11.63;;;7.45;;
68176;SDS011;56478;50.982;7.032;2024-01-16T01:01:04;14.00;;;8.13;;
68176;SDS011;56478;50.982;7.032;2024-01-16T01:03:30;11.25;;;7.70;;
68176;SDS011;56478;50.982;7.032;2024-01-16T01:05:56;13.18;;;7.88;;
68176;SDS011;56478;50.982;7.032;2024-01-16T01:08:22;14.32;;;7.93;;
68176;SDS011;56478;50.982;7.032;2024-01-16T01:10:48;14.20;;;7.75;;
68176;SDS011;56478;50.982;7.032;2024-01-16T01:13:14;10.23;;;7.68;;
68176;SDS011;56478;50.982;7.032;2024-01-16T01:15:39;11.48;;;6.57;;
68176;SDS011;56478;50.982;7.032;2024-01-16T01:18:05;12.68;;;7.90;;
68176;SDS011;56478;50.982;7.032;2024-01-16T01:20:31;10.70;;;7.38;;
68176;SDS011;56478;50.982;7.032;2024-01-16T01:22:57;13.85;;;7.75;;
68176;SDS011;56478;50.982;7.032;2024-01-16T01:25:25;17.05;;;7.78;;
68176;SDS011;56478;50.982;7.032;2024-01-16T01:27:51;11.50;;;7.72;;
68176;SDS011;56478;50.982;7.032;2024-01-16T01:30:17;12.95;;;7.05;;
68176;SDS011;56478;50.982;7.032;2024-01-16T01:32:43;12.32;;;7.18;;
68176;SDS011;56478;50.982;7.032;2024-01-16T01:35:09;13.65;;;7.82;;
68176;SDS011;56478;50.982;7.032;2024-01-16T01:37:36;14.55;;;7.53;;
68176;SDS011;56478;50.982;7.032;2024-01-16T01:40:03;15.10;;;7.43;;
68176;SDS011;56478;50.982;7.032;2024-01-16T01:42:30;19.23;;;7.57;;
68176;SDS011;56478;50.982;7.032;2024-01-16T01:44:56;12.00;;;6.80;;
68176;SDS011;56478;50.982;7.032;2024-01-16T01:47:21;11.82;;;6.25;;
68176;SDS011;56478;50.982;7.032;2024-01-16T01:49:48;11.93;;;6.70;;
68176;SDS011;56478;50.982;7.032;2024-01-16T01:52:14;9.73;;;6.18;;
68176;SDS011;56478;50.982;7.032;2024-01-16T01:54:40;12.80;;;6.30;;
68176;SDS011;56478;50.982;7.032;2024-01-16T01:57:07;12.73;;;6.70;;
68176;SDS011;56478;50.982;7.032;2024-01-16T01:59:34;9.43;;;5.80;;
68176;SDS011;56478;50.982;7.032;2024-01-16T02:02:01;10.55;;;6.18;;
68176;SDS011;56478;50.982;7.032;2024-01-16T02:04:28;9.98;;;5.72;;
68176;SDS011;56478;50.982;7.032;2024-01-16T02:06:56;13.25;;;6.20;;
68176;SDS011;56478;50.982;7.032;2024-01-16T02:09:23;9.82;;;6.03;;
68176;SDS011;56478;50.982;7.032;2024-01-16T02:11:49;12.40;;;6.35;;
68176;SDS011;56478;50.982;7.032;2024-01-16T02:14:14;13.15;;;6.90;;
68176;SDS011;56478;50.982;7.032;2024-01-16T02:16:41;13.27;;;6.82;;
68176;SDS011;56478;50.982;7.032;2024-01-16T02:19:09;14.35;;;7.00;;
68176;SDS011;56478;50.982;7.032;2024-01-16T02:21:48;12.77;;;6.28;;
68176;SDS011;56478;50.982;7.032;2024-01-16T02:24:15;8.82;;;6.25;;
68176;SDS011;56478;50.982;7.032;2024-01-16T02:26:42;12.90;;;6.30;;
68176;SDS011;56478;50.982;7.032;2024-01-16T02:29:08;11.35;;;6.80;;
68176;SDS011;56478;50.982;7.032;2024-01-16T02:31:34;11.48;;;7.20;;
68176;SDS011;56478;50.982;7.032;2024-01-16T02:34:01;13.48;;;6.80;;
68176;SDS011;56478;50.982;7.032;2024-01-16T02:36:29;12.23;;;6.30;;
68176;SDS011;56478;50.982;7.032;2024-01-16T02:38:56;9.23;;;5.95;;
68176;SDS011;56478;50.982;7.032;2024-01-16T02:41:22;18.63;;;6.45;;
68176;SDS011;56478;50.982;7.032;2024-01-16T02:43:48;18.10;;;6.97;;
68176;SDS011;56478;50.982;7.032;2024-01-16T02:46:14;11.05;;;6.00;;
68176;SDS011;56478;50.982;7.032;2024-01-16T02:48:40;11.10;;;5.93;;
68176;SDS011;56478;50.982;7.032;2024-01-16T02:51:09;12.57;;;6.35;;
68176;SDS011;56478;50.982;7.032;2024-01-16T02:53:35;12.50;;;6.55;;
68176;SDS011;56478;50.982;7.032;2024-01-16T02:56:01;11.57;;;7.00;;
68176;SDS011;56478;50.982;7.032;2024-01-16T02:58:27;12.05;;;6.32;;
68176;SDS011;56478;50.982;7.032;2024-01-16T03:00:54;12.00;;;6.90;;
68176;SDS011;56478;50.982;7.032;2024-01-16T03:03:20;11.15;;;6.72;;
68176;SDS011;56478;50.982;7.032;2024-01-16T03:05:46;15.30;;;7.20;;
68176;SDS011;56478;50.982;7.032;2024-01-16T03:08:12;13.48;;;7.63;;
68176;SDS011;56478;50.982;7.032;2024-01-16T03:10:38;9.57;;;6.30;;
68176;SDS011;56478;50.982;7.032;2024-01-16T03:13:05;10.82;;;6.55;;
68176;SDS011;56478;50.982;7.032;2024-01-16T03:15:31;12.48;;;6.65;;
68176;SDS011;56478;50.982;7.032;2024-01-16T03:17:57;10.95;;;6.18;;
68176;SDS011;56478;50.982;7.032;2024-01-16T03:20:24;11.27;;;6.65;;
68176;SDS011;56478;50.982;7.032;2024-01-16T03:22:50;8.38;;;5.97;;
68176;SDS011;56478;50.982;7.032;2024-01-16T03:25:16;9.63;;;6.88;;
68176;SDS011;56478;50.982;7.032;2024-01-16T03:27:42;12.30;;;6.13;;
68176;SDS011;56478;50.982;7.032;2024-01-16T03:30:09;9.73;;;6.28;;
68176;SDS011;56478;50.982;7.032;2024-01-16T03:32:39;13.82;;;6.97;;
68176;SDS011;56478;50.982;7.032;2024-01-16T03:35:05;13.57;;;6.15;;
68176;SDS011;56478;50.982;7.032;2024-01-16T03:37:32;13.35;;;5.90;;
68176;SDS011;56478;50.982;7.032;2024-01-16T03:39:58;11.32;;;5.63;;
68176;SDS011;56478;50.982;7.032;2024-01-16T03:42:24;11.63;;;6.15;;
68176;SDS011;56478;50.982;7.032;2024-01-16T03:44:50;9.23;;;6.03;;
68176;SDS011;56478;50.982;7.032;2024-01-16T03:47:16;10.38;;;6.05;;
68176;SDS011;56478;50.982;7.032;2024-01-16T03:49:42;8.25;;;5.70;;
68176;SDS011;56478;50.982;7.032;2024-01-16T03:52:08;14.43;;;6.38;;
68176;SDS011;56478;50.982;7.032;2024-01-16T03:54:33;8.48;;;6.03;;
68176;SDS011;56478;50.982;7.032;2024-01-16T03:56:59;12.82;;;6.97;;
68176;SDS011;56478;50.982;7.032;2024-01-16T03:59:25;13.65;;;6.82;;
68176;SDS011;56478;50.982;7.032;2024-01-16T04:01:51;12.48;;;6.38;;
68176;SDS011;56478;50.982;7.032;2024-01-16T04:04:18;9.52;;;6.50;;
68176;SDS011;56478;50.982;7.032;2024-01-16T04:06:44;10.57;;;6.57;;
68176;SDS011;56478;50.982;7.032;2024-01-16T04:09:11;11.45;;;6.35;;
68176;SDS011;56478;50.982;7.032;2024-01-16T04:11:38;12.80;;;6.97;;
68176;SDS011;56478;50.982;7.032;2024-01-16T04:14:04;11.20;;;6.90;;
68176;SDS011;56478;50.982;7.032;2024-01-16T04:16:30;11.48;;;6.80;;
68176;SDS011;56478;50.982;7.032;2024-01-16T04:18:56;12.60;;;6.53;;
68176;SDS011;56478;50.982;7.032;2024-01-16T04:21:22;12.15;;;6.78;;
68176;SDS011;56478;50.982;7.032;2024-01-16T04:23:48;11.43;;;6.82;;
68176;SDS011;56478;50.982;7.032;2024-01-16T04:26:13;13.80;;;7.63;;
68176;SDS011;56478;50.982;7.032;2024-01-16T04:28:39;10.88;;;7.40;;
68176;SDS011;56478;50.982;7.032;2024-01-16T04:31:05;15.50;;;7.90;;
68176;SDS011;56478;50.982;7.032;2024-01-16T04:33:31;13.45;;;7.93;;
68176;SDS011;56478;50.982;7.032;2024-01-16T04:35:57;15.57;;;7.85;;
68176;SDS011;56478;50.982;7.032;2024-01-16T04:38:23;12.52;;;8.20;;
68176;SDS011;56478;50.982;7.032;2024-01-16T04:40:49;13.80;;;7.35;;
68176;SDS011;56478;50.982;7.032;2024-01-16T04:43:16;13.45;;;8.00;;
68176;SDS011;56478;50.982;7.032;2024-01-16T04:45:41;18.50;;;8.40;;
68176;SDS011;56478;50.982;7.032;2024-01-16T04:48:07;14.35;;;8.02;;
68176;SDS011;56478;50.982;7.032;2024-01-16T04:50:36;16.92;;;8.20;;
68176;SDS011;56478;50.982;7.032;2024-01-16T04:53:02;13.93;;;8.20;;
68176;SDS011;56478;50.982;7.032;2024-01-16T04:55:28;11.68;;;7.40;;
68176;SDS011;56478;50.982;7.032;2024-01-16T04:57:55;16.42;;;8.20;;
68176;SDS011;56478;50.982;7.032;2024-01-16T05:00:21;11.48;;;7.57;;
68176;SDS011;56478;50.982;7.032;2024-01-16T05:02:47;9.23;;;7.38;;
68176;SDS011;56478;50.982;7.032;2024-01-16T05:05:13;12.13;;;8.15;;
68176;SDS011;56478;50.982;7.032;2024-01-16T05:07:40;14.85;;;8.10;;
68176;SDS011;56478;50.982;7.032;2024-01-16T05:10:06;11.98;;;7.70;;
68176;SDS011;56478;50.982;7.032;2024-01-16T05:12:35;17.45;;;8.40;;
68176;SDS011;56478;50.982;7.032;2024-01-16T05:15:01;16.35;;;8.80;;
68176;SDS011;56478;50.982;7.032;2024-01-16T05:17:27;12.65;;;6.90;;
68176;SDS011;56478;50.982;7.032;2024-01-16T05:19:53;12.55;;;7.25;;
68176;SDS011;56478;50.982;7.032;2024-01-16T05:22:19;11.18;;;6.53;;
68176;SDS011;56478;50.982;7.032;2024-01-16T05:24:45;12.70;;;6.15;;
68176;SDS011;56478;50.982;7.032;2024-01-16T05:27:11;12.82;;;5.47;;
68176;SDS011;56478;50.982;7.032;2024-01-16T05:29:36;12.07;;;5.68;;
68176;SDS011;56478;50.982;7.032;2024-01-16T05:32:03;11.63;;;5.78;;
68176;SDS011;56478;50.982;7.032;2024-01-16T05:34:29;11.88;;;5.32;;
68176;SDS011;56478;50.982;7.032;2024-01-16T05:36:55;13.38;;;5.63;;
68176;SDS011;56478;50.982;7.032;2024-01-16T05:39:21;9.02;;;5.10;;
68176;SDS011;56478;50.982;7.032;2024-01-16T05:41:47;11.80;;;5.50;;
68176;SDS011;56478;50.982;7.032;2024-01-16T05:44:13;8.88;;;4.85;;
68176;SDS011;56478;50.982;7.032;2024-01-16T05:46:39;10.05;;;4.55;;
68176;SDS011;56478;50.982;7.032;2024-01-16T05:49:04;14.07;;;5.32;;
68176;SDS011;56478;50.982;7.032;2024-01-16T05:51:30;15.02;;;4.93;;
68176;SDS011;56478;50.982;7.032;2024-01-16T05:53:56;11.40;;;5.20;;
68176;SDS011;56478;50.982;7.032;2024-01-16T05:56:22;11.15;;;4.97;;
68176;SDS011;56478;50.982;7.032;2024-01-16T05:58:48;11.55;;;5.03;;
68176;SDS011;56478;50.982;7.032;2024-01-16T06:01:14;9.20;;;5.18;;
68176;SDS011;56478;50.982;7.032;2024-01-16T06:03:40;10.35;;;5.75;;
68176;SDS011;56478;50.982;7.032;2024-01-16T06:06:06;11.65;;;6.07;;
68176;SDS011;56478;50.982;7.032;2024-01-16T06:08:33;13.20;;;5.47;;
68176;SDS011;56478;50.982;7.032;2024-01-16T06:10:59;8.55;;;4.97;;
68176;SDS011;56478;50.982;7.032;2024-01-16T06:13:25;14.38;;;5.40;;
68176;SDS011;56478;50.982;7.032;2024-01-16T06:15:51;15.65;;;5.80;;
68176;SDS011;56478;50.982;7.032;2024-01-16T06:18:16;12.45;;;5.10;;
68176;SDS011;56478;50.982;7.032;2024-01-16T06:20:42;12.90;;;5.15;;
68176;SDS011;56478;50.982;7.032;2024-01-16T06:23:08;14.52;;;5.25;;
68176;SDS011;56478;50.982;7.032;2024-01-16T06:25:34;10.88;;;4.97;;
68176;SDS011;56478;50.982;7.032;2024-01-16T06:27:59;16.80;;;5.85;;
68176;SDS011;56478;50.982;7.032;2024-01-16T06:30:25;11.80;;;4.88;;
68176;SDS011;56478;50.982;7.032;2024-01-16T06:32:51;9.35;;;4.82;;
68176;SDS011;56478;50.982;7.032;2024-01-16T06:35:17;13.50;;;5.22;;
68176;SDS011;56478;50.982;7.032;2024-01-16T06:37:43;14.23;;;5.57;;
68176;SDS011;56478;50.982;7.032;2024-01-16T06:40:09;10.73;;;5.28;;
68176;SDS011;56478;50.982;7.032;2024-01-16T06:42:35;15.27;;;5.70;;
68176;SDS011;56478;50.982;7.032;2024-01-16T06:45:01;11.68;;;4.85;;
68176;SDS011;56478;50.982;7.032;2024-01-16T06:47:28;11.27;;;5.00;;
68176;SDS011;56478;50.982;7.032;2024-01-16T06:49:55;8.88;;;4.93;;
68176;SDS011;56478;50.982;7.032;2024-01-16T06:52:21;9.90;;;4.68;;
68176;SDS011;56478;50.982;7.032;2024-01-16T06:54:46;12.10;;;4.78;;
68176;SDS011;56478;50.982;7.032;2024-01-16T06:57:12;12.82;;;5.13;;
68176;SDS011;56478;50.982;7.032;2024-01-16T06:59:38;10.93;;;5.00;;
68176;SDS011;56478;50.982;7.032;2024-01-16T07:02:04;9.10;;;4.63;;
68176;SDS011;56478;50.982;7.032;2024-01-16T07:04:29;10.02;;;4.57;;
68176;SDS011;56478;50.982;7.032;2024-01-16T07:06:56;12.05;;;5.00;;
68176;SDS011;56478;50.982;7.032;2024-01-16T07:09:22;10.65;;;4.40;;
68176;SDS011;56478;50.982;7.032;2024-01-16T07:11:48;9.10;;;4.28;;
68176;SDS011;56478;50.982;7.032;2024-01-16T07:14:13;12.98;;;4.68;;
68176;SDS011;56478;50.982;7.032;2024-01-16T07:16:39;11.13;;;4.50;;
68176;SDS011;56478;50.982;7.032;2024-01-16T07:19:05;13.32;;;4.50;;
68176;SDS011;56478;50.982;7.032;2024-01-16T07:21:31;13.38;;;4.82;;
68176;SDS011;56478;50.982;7.032;2024-01-16T07:23:57;7.97;;;4.05;;
68176;SDS011;56478;50.982;7.032;2024-01-16T07:26:23;11.43;;;3.83;;
68176;SDS011;56478;50.982;7.032;2024-01-16T07:28:49;9.25;;;3.97;;
68176;SDS011;56478;50.982;7.032;2024-01-16T07:31:14;9.02;;;4.07;;
68176;SDS011;56478;50.982;7.032;2024-01-16T07:33:42;9.57;;;4.03;;
68176;SDS011;56478;50.982;7.032;2024-01-16T07:36:08;7.72;;;3.88;;
68176;SDS011;56478;50.982;7.032;2024-01-16T07:38:34;10.10;;;4.40;;
68176;SDS011;56478;50.982;7.032;2024-01-16T07:41:04;6.15;;;3.55;;
68176;SDS011;56478;50.982;7.032;2024-01-16T07:43:30;9.75;;;3.83;;
68176;SDS011;56478;50.982;7.032;2024-01-16T07:45:56;10.13;;;4.07;;
68176;SDS011;56478;50.982;7.032;2024-01-16T07:48:22;9.32;;;3.72;;
68176;SDS011;56478;50.982;7.032;2024-01-16T07:50:48;13.25;;;4.10;;
68176;SDS011;56478;50.982;7.032;2024-01-16T07:53:14;10.95;;;3.80;;
68176;SDS011;56478;50.982;7.032;2024-01-16T07:55:41;7.40;;;3.10;;
68176;SDS011;56478;50.982;7.032;2024-01-16T07:58:07;7.78;;;3.30;;
68176;SDS011;56478;50.982;7.032;2024-01-16T08:00:35;9.73;;;3.47;;
68176;SDS011;56478;50.982;7.032;2024-01-16T08:03:01;7.80;;;3.20;;
68176;SDS011;56478;50.982;7.032;2024-01-16T08:05:28;12.73;;;3.63;;
68176;SDS011;56478;50.982;7.032;2024-01-16T08:07:55;9.73;;;3.63;;
68176;SDS011;56478;50.982;7.032;2024-01-16T08:10:22;5.43;;;3.22;;
68176;SDS011;56478;50.982;7.032;2024-01-16T08:12:48;7.57;;;2.92;;
68176;SDS011;56478;50.982;7.032;2024-01-16T08:15:14;9.82;;;3.50;;
68176;SDS011;56478;50.982;7.032;2024-01-16T08:17:40;9.80;;;3.28;;
68176;SDS011;56478;50.982;7.032;2024-01-16T08:20:06;7.70;;;3.50;;
68176;SDS011;56478;50.982;7.032;2024-01-16T08:22:35;6.22;;;2.88;;
68176;SDS011;56478;50.982;7.032;2024-01-16T08:25:01;7.55;;;3.03;;
68176;SDS011;56478;50.982;7.032;2024-01-16T08:27:30;7.05;;;3.22;;
68176;SDS011;56478;50.982;7.032;2024-01-16T08:29:56;12.18;;;3.45;;
68176;SDS011;56478;50.982;7.032;2024-01-16T08:32:22;8.43;;;3.30;;
68176;SDS011;56478;50.982;7.032;2024-01-16T08:34:48;7.88;;;3.17;;
68176;SDS011;56478;50.982;7.032;2024-01-16T08:37:14;10.52;;;3.28;;
68176;SDS011;56478;50.982;7.032;2024-01-16T08:39:40;10.63;;;3.00;;
68176;SDS011;56478;50.982;7.032;2024-01-16T08:42:05;7.90;;;3.13;;
68176;SDS011;56478;50.982;7.032;2024-01-16T08:44:31;13.23;;;3.00;;
68176;SDS011;56478;50.982;7.032;2024-01-16T08:46:57;7.25;;;2.83;;
68176;SDS011;56478;50.982;7.032;2024-01-16T08:49:24;7.97;;;2.95;;
68176;SDS011;56478;50.982;7.032;2024-01-16T08:51:50;8.25;;;2.45;;
68176;SDS011;56478;50.982;7.032;2024-01-16T08:54:16;6.15;;;2.83;;
68176;SDS011;56478;50.982;7.032;2024-01-16T08:56:42;8.75;;;2.50;;
68176;SDS011;56478;50.982;7.032;2024-01-16T08:59:07;7.72;;;2.72;;
68176;SDS011;56478;50.982;7.032;2024-01-16T09:01:35;6.15;;;2.63;;
68176;SDS011;56478;50.982;7.032;2024-01-16T09:04:01;5.57;;;2.80;;
68176;SDS011;56478;50.982;7.032;2024-01-16T09:06:26;4.93;;;2.65;;
68176;SDS011;56478;50.982;7.032;2024-01-16T09:08:52;6.38;;;2.60;;
68176;SDS011;56478;50.982;7.032;2024-01-16T09:11:18;7.28;;;2.88;;
68176;SDS011;56478;50.982;7.032;2024-01-16T09:13:44;7.80;;;2.80;;
68176;SDS011;56478;50.982;7.032;2024-01-16T09:16:09;6.00;;;2.80;;
68176;SDS011;56478;50.982;7.032;2024-01-16T09:18:35;10.52;;;3.13;;
68176;SDS011;56478;50.982;7.032;2024-01-16T09:21:01;5.18;;;2.53;;
68176;SDS011;56478;50.982;7.032;2024-01-16T09:23:27;10.10;;;2.92;;
68176;SDS011;56478;50.982;7.032;2024-01-16T09:25:53;8.27;;;2.75;;
68176;SDS011;56478;50.982;7.032;2024-01-16T09:28:18;4.05;;;2.45;;
68176;SDS011;56478;50.982;7.032;2024-01-16T09:30:44;13.73;;;2.90;;
68176;SDS011;56478;50.982;7.032;2024-01-16T09:33:10;10.18;;;2.85;;
68176;SDS011;56478;50.982;7.032;2024-01-16T09:35:36;10.18;;;3.00;;
68176;SDS011;56478;50.982;7.032;2024-01-16T09:38:03;10.57;;;3.50;;
68176;SDS011;56478;50.982;7.032;2024-01-16T09:40:30;5.65;;;2.72;;
68176;SDS011;56478;50.982;7.032;2024-01-16T09:42:56;5.38;;;2.65;;
68176;SDS011;56478;50.982;7.032;2024-01-16T09:45:22;8.80;;;2.97;;
68176;SDS011;56478;50.982;7.032;2024-01-16T09:47:51;7.93;;;2.97;;
68176;SDS011;56478;50.982;7.032;2024-01-16T09:50:18;7.28;;;2.88;;
68176;SDS011;56478;50.982;7.032;2024-01-16T09:52:48;7.22;;;2.90;;
68176;SDS011;56478;50.982;7.032;2024-01-16T09:55:14;6.50;;;2.88;;
68176;SDS011;56478;50.982;7.032;2024-01-16T09:57:41;8.05;;;3.10;;
68176;SDS011;56478;50.982;7.032;2024-01-16T10:00:10;8.90;;;3.05;;
68176;SDS011;56478;50.982;7.032;2024-01-16T10:02:38;7.40;;;3.03;;
68176;SDS011;56478;50.982;7.032;2024-01-16T10:05:06;7.00;;;2.60;;
68176;SDS011;56478;50.982;7.032;2024-01-16T10:07:33;9.15;;;2.80;;
68176;SDS011;56478;50.982;7.032;2024-01-16T10:10:03;7.68;;;3.03;;
68176;SDS011;56478;50.982;7.032;2024-01-16T10:12:30;6.72;;;2.83;;
68176;SDS011;56478;50.982;7.032;2024-01-16T10:14:56;8.50;;;3.10;;
68176;SDS011;56478;50.982;7.032;2024-01-16T10:17:22;7.90;;;2.88;;
68176;SDS011;56478;50.982;7.032;2024-01-16T10:20:01;9.38;;;3.00;;
68176;SDS011;56478;50.982;7.032;2024-01-16T10:22:30;6.13;;;2.63;;
68176;SDS011;56478;50.982;7.032;2024-01-16T10:25:06;6.10;;;2.80;;
68176;SDS011;56478;50.982;7.032;2024-01-16T10:27:34;7.53;;;2.70;;
68176;SDS011;56478;50.982;7.032;2024-01-16T10:30:01;6.82;;;3.10;;
68176;SDS011;56478;50.982;7.032;2024-01-16T10:32:30;6.78;;;2.80;;
68176;SDS011;56478;50.982;7.032;2024-01-16T10:35:09;7.38;;;2.90;;
68176;SDS011;56478;50.982;7.032;2024-01-16T10:37:40;10.73;;;3.38;;
68176;SDS011;56478;50.982;7.032;2024-01-16T10:40:08;9.30;;;2.78;;
68176;SDS011;56478;50.982;7.032;2024-01-16T10:42:34;11.05;;;3.05;;
68176;SDS011;56478;50.982;7.032;2024-01-16T10:45:00;3.35;;;2.40;;
68176;SDS011;56478;50.982;7.032;2024-01-16T10:47:25;5.25;;;2.70;;
68176;SDS011;56478;50.982;7.032;2024-01-16T10:49:51;8.93;;;2.83;;
68176;SDS011;56478;50.982;7.032;2024-01-16T10:52:17;4.43;;;2.55;;
68176;SDS011;56478;50.982;7.032;2024-01-16T10:54:43;6.38;;;2.75;;
68176;SDS011;56478;50.982;7.032;2024-01-16T10:57:15;6.03;;;2.67;;
68176;SDS011;56478;50.982;7.032;2024-01-16T11:02:38;6.72;;;3.30;;
68176;SDS011;56478;50.982;7.032;2024-01-16T11:05:10;6.95;;;2.50;;
68176;SDS011;56478;50.982;7.032;2024-01-16T11:07:37;10.57;;;2.85;;
68176;SDS011;56478;50.982;7.032;2024-01-16T11:10:06;8.10;;;2.97;;
68176;SDS011;56478;50.982;7.032;2024-01-16T11:12:33;7.32;;;3.00;;
68176;SDS011;56478;50.982;7.032;2024-01-16T11:15:01;7.10;;;2.83;;
68176;SDS011;56478;50.982;7.032;2024-01-16T11:17:33;7.90;;;2.95;;
68176;SDS011;56478;50.982;7.032;2024-01-16T11:20:03;6.30;;;3.00;;
68176;SDS011;56478;50.982;7.032;2024-01-16T11:22:38;7.47;;;3.03;;
68176;SDS011;56478;50.982;7.032;2024-01-16T11:25:12;9.10;;;3.17;;
68176;SDS011;56478;50.982;7.032;2024-01-16T11:27:40;8.43;;;2.90;;
68176;SDS011;56478;50.982;7.032;2024-01-16T11:30:07;6.50;;;2.97;;
68176;SDS011;56478;50.982;7.032;2024-01-16T11:35:01;10.00;;;3.10;;
68176;SDS011;56478;50.982;7.032;2024-01-16T11:37:30;7.90;;;3.22;;
68176;SDS011;56478;50.982;7.032;2024-01-16T11:42:45;6.22;;;3.13;;
68176;SDS011;56478;50.982;7.032;2024-01-16T11:50:40;7.28;;;3.03;;
68176;SDS011;56478;50.982;7.032;2024-01-16T11:53:07;7.65;;;2.90;;
68176;SDS011;56478;50.982;7.032;2024-01-16T11:55:34;6.80;;;2.83;;
68176;SDS011;56478;50.982;7.032;2024-01-16T12:01:07;8.98;;;3.30;;
68176;SDS011;56478;50.982;7.032;2024-01-16T12:03:33;6.78;;;2.90;;
68176;SDS011;56478;50.982;7.032;2024-01-16T12:05:59;4.07;;;2.63;;
68176;SDS011;56478;50.982;7.032;2024-01-16T12:08:27;8.18;;;2.83;;
68176;SDS011;56478;50.982;7.032;2024-01-16T12:10:53;8.32;;;2.90;;
68176;SDS011;56478;50.982;7.032;2024-01-16T12:13:19;6.32;;;3.20;;
68176;SDS011;56478;50.982;7.032;2024-01-16T12:15:45;7.00;;;3.00;;
68176;SDS011;56478;50.982;7.032;2024-01-16T12:18:19;7.55;;;2.92;;
68176;SDS011;56478;50.982;7.032;2024-01-16T12:20:45;8.93;;;3.10;;
68176;SDS011;56478;50.982;7.032;2024-01-16T12:23:11;10.05;;;3.30;;
68176;SDS011;56478;50.982;7.032;2024-01-16T12:25:37;6.78;;;3.08;;
68176;SDS011;56478;50.982;7.032;2024-01-16T12:28:04;6.57;;;3.28;;
68176;SDS011;56478;50.982;7.032;2024-01-16T12:30:31;6.82;;;3.05;;
68176;SDS011;56478;50.982;7.032;2024-01-16T12:35:36;11.98;;;3.50;;
68176;SDS011;56478;50.982;7.032;2024-01-16T12:38:03;8.52;;;2.90;;
68176;SDS011;56478;50.982;7.032;2024-01-16T12:40:31;10.15;;;3.47;;
68176;SDS011;56478;50.982;7.032;2024-01-16T12:42:57;6.90;;;3.22;;
68176;SDS011;56478;50.982;7.032;2024-01-16T12:45:23;7.85;;;3.03;;
68176;SDS011;56478;50.982;7.032;2024-01-16T12:47:52;7.38;;;3.28;;
68176;SDS011;56478;50.982;7.032;2024-01-16T12:50:20;5.28;;;3.25;;
68176;SDS011;56478;50.982;7.032;2024-01-16T12:52:50;5.68;;;3.30;;
68176;SDS011;56478;50.982;7.032;2024-01-16T12:55:25;6.85;;;2.97;;
68176;SDS011;56478;50.982;7.032;2024-01-16T12:58:11;5.53;;;3.38;;
68176;SDS011;56478;50.982;7.032;2024-01-16T13:00:47;10.73;;;3.20;;
68176;SDS011;56478;50.982;7.032;2024-01-16T13:03:15;6.72;;;2.88;;
68176;SDS011;56478;50.982;7.032;2024-01-16T13:05:45;10.00;;;3.47;;
68176;SDS011;56478;50.982;7.032;2024-01-16T13:08:18;9.70;;;3.67;;
68176;SDS011;56478;50.982;7.032;2024-01-16T13:11:01;8.88;;;3.33;;
68176;SDS011;56478;50.982;7.032;2024-01-16T13:13:28;7.22;;;3.42;;
68176;SDS011;56478;50.982;7.032;2024-01-16T13:15:55;11.10;;;3.10;;
68176;SDS011;56478;50.982;7.032;2024-01-16T13:18:22;6.88;;;3.78;;
68176;SDS011;56478;50.982;7.032;2024-01-16T13:20:53;8.93;;;4.10;;
68176;SDS011;56478;50.982;7.032;2024-01-16T13:23:21;5.18;;;3.35;;
68176;SDS011;56478;50.982;7.032;2024-01-16T13:25:48;5.20;;;3.42;;
68176;SDS011;56478;50.982;7.032;2024-01-16T13:28:18;9.63;;;3.90;;
68176;SDS011;56478;50.982;7.032;2024-01-16T13:30:45;5.82;;;3.30;;
68176;SDS011;56478;50.982;7.032;2024-01-16T13:33:12;9.75;;;3.90;;
68176;SDS011;56478;50.982;7.032;2024-01-16T13:35:40;7.95;;;3.85;;
68176;SDS011;56478;50.982;7.032;2024-01-16T13:38:07;11.30;;;3.35;;
68176;SDS011;56478;50.982;7.032;2024-01-16T13:40:34;12.15;;;4.40;;
68176;SDS011;56478;50.982;7.032;2024-01-16T13:43:01;5.28;;;3.55;;
68176;SDS011;56478;50.982;7.032;2024-01-16T13:45:27;8.60;;;3.75;;
68176;SDS011;56478;50.982;7.032;2024-01-16T13:47:56;7.85;;;3.97;;
68176;SDS011;56478;50.982;7.032;2024-01-16T13:50:22;10.35;;;3.90;;
68176;SDS011;56478;50.982;7.032;2024-01-16T13:52:49;5.95;;;3.50;;
68176;SDS011;56478;50.982;7.032;2024-01-16T13:55:15;7.03;;;3.90;;
68176;SDS011;56478;50.982;7.032;2024-01-16T13:57:41;6.65;;;3.38;;
68176;SDS011;56478;50.982;7.032;2024-01-16T14:00:07;11.43;;;4.40;;
68176;SDS011;56478;50.982;7.032;2024-01-16T14:02:42;7.75;;;4.15;;
68176;SDS011;56478;50.982;7.032;2024-01-16T14:05:09;11.00;;;4.32;;
68176;SDS011;56478;50.982;7.032;2024-01-16T14:07:43;7.22;;;3.67;;
68176;SDS011;56478;50.982;7.032;2024-01-16T14:10:15;9.05;;;3.85;;
68176;SDS011;56478;50.982;7.032;2024-01-16T14:12:41;6.85;;;4.18;;
68176;SDS011;56478;50.982;7.032;2024-01-16T14:15:09;9.73;;;3.60;;
68176;SDS011;56478;50.982;7.032;2024-01-16T14:17:44;6.47;;;3.85;;
68176;SDS011;56478;50.982;7.032;2024-01-16T14:20:28;7.90;;;4.05;;
68176;SDS011;56478;50.982;7.032;2024-01-16T14:22:54;10.32;;;3.78;;
68176;SDS011;56478;50.982;7.032;2024-01-16T14:25:20;12.40;;;4.22;;
68176;SDS011;56478;50.982;7.032;2024-01-16T14:28:00;9.88;;;4.32;;
68176;SDS011;56478;50.982;7.032;2024-01-16T14:30:31;9.18;;;4.45;;
68176;SDS011;56478;50.982;7.032;2024-01-16T14:32:57;12.27;;;4.43;;
68176;SDS011;56478;50.982;7.032;2024-01-16T14:35:23;10.25;;;4.60;;
68176;SDS011;56478;50.982;7.032;2024-01-16T14:37:52;10.35;;;4.47;;
68176;SDS011;56478;50.982;7.032;2024-01-16T14:40:18;9.55;;;4.32;;
68176;SDS011;56478;50.982;7.032;2024-01-16T14:42:53;7.60;;;3.92;;
68176;SDS011;56478;50.982;7.032;2024-01-16T14:45:24;10.68;;;3.55;;
68176;SDS011;56478;50.982;7.032;2024-01-16T14:47:52;5.22;;;3.65;;
68176;SDS011;56478;50.982;7.032;2024-01-16T14:50:21;7.65;;;3.80;;
68176;SDS011;56478;50.982;7.032;2024-01-16T14:52:51;9.27;;;3.65;;
68176;SDS011;56478;50.982;7.032;2024-01-16T14:55:18;9.30;;;3.97;;
68176;SDS011;56478;50.982;7.032;2024-01-16T14:57:47;7.65;;;3.88;;
68176;SDS011;56478;50.982;7.032;2024-01-16T15:00:18;4.65;;;3.38;;
68176;SDS011;56478;50.982;7.032;2024-01-16T15:02:52;7.45;;;3.80;;